sensor_id;sensor_type;location;lat;lon;timestamp;P1;durP1;ratioP1;P2;durP2;ratioP2
76021;SDS011;64718;52.124;6.226;2023-04-01T00:01:44;4.13;;;1.88;;
76021;SDS011;64718;52.124;6.226;2023-04-01T00:04:12;5.00;;;3.42;;
76021;SDS011;64718;52.124;6.226;2023-04-01T00:06:38;5.25;;;2.83;;
76021;SDS011;64718;52.124;6.226;2023-04-01T00:09:05;6.82;;;3.53;;
76021;SDS011;64718;52.124;6.226;2023-04-01T00:11:32;6.50;;;3.08;;
76021;SDS011;64718;52.124;6.226;2023-04-01T00:13:58;7.50;;;3.50;;
76021;SDS011;64718;52.124;6.226;2023-04-01T00:16:25;5.28;;;2.58;;
76021;SDS011;64718;52.124;6.226;2023-04-01T00:18:52;6.93;;;2.60;;
76021;SDS011;64718;52.124;6.226;2023-04-01T00:21:20;4.93;;;3.30;;
76021;SDS011;64718;52.124;6.226;2023-04-01T00:23:46;5.45;;;2.70;;
76021;SDS011;64718;52.124;6.226;2023-04-01T00:26:13;6.78;;;3.33;;
76021;SDS011;64718;52.124;6.226;2023-04-01T00:28:43;7.32;;;3.88;;
76021;SDS011;64718;52.124;6.226;2023-04-01T00:31:11;7.30;;;3.35;;
76021;SDS011;64718;52.124;6.226;2023-04-01T00:33:37;5.20;;;2.67;;
76021;SDS011;64718;52.124;6.226;2023-04-01T00:36:05;7.88;;;4.28;;
76021;SDS011;64718;52.124;6.226;2023-04-01T00:38:36;6.50;;;3.45;;
76021;SDS011;64718;52.124;6.226;2023-04-01T00:41:03;7.20;;;2.80;;
76021;SDS011;64718;52.124;6.226;2023-04-01T00:43:30;6.25;;;3.28;;
76021;SDS011;64718;52.124;6.226;2023-04-01T00:45:57;8.63;;;3.58;;
76021;SDS011;64718;52.124;6.226;2023-04-01T00:48:24;6.10;;;3.53;;
76021;SDS011;64718;52.124;6.226;2023-04-01T00:50:55;5.60;;;3.25;;
76021;SDS011;64718;52.124;6.226;2023-04-01T00:53:25;7.75;;;4.43;;
76021;SDS011;64718;52.124;6.226;2023-04-01T00:55:55;6.10;;;3.25;;
76021;SDS011;64718;52.124;6.226;2023-04-01T00:58:27;5.03;;;3.08;;
76021;SDS011;64718;52.124;6.226;2023-04-01T01:00:57;6.88;;;4.22;;
76021;SDS011;64718;52.124;6.226;2023-04-01T01:03:25;4.80;;;3.03;;
76021;SDS011;64718;52.124;6.226;2023-04-01T01:05:59;5.55;;;3.65;;
76021;SDS011;64718;52.124;6.226;2023-04-01T01:08:39;5.22;;;3.28;;
76021;SDS011;64718;52.124;6.226;2023-04-01T01:11:22;5.43;;;2.80;;
76021;SDS011;64718;52.124;6.226;2023-04-01T01:13:56;8.45;;;3.55;;
76021;SDS011;64718;52.124;6.226;2023-04-01T01:16:28;7.72;;;3.13;;
76021;SDS011;64718;52.124;6.226;2023-04-01T01:19:02;7.40;;;2.55;;
76021;SDS011;64718;52.124;6.226;2023-04-01T01:21:42;7.07;;;3.70;;
76021;SDS011;64718;52.124;6.226;2023-04-01T01:24:30;6.43;;;3.20;;
76021;SDS011;64718;52.124;6.226;2023-04-01T01:27:08;5.25;;;2.50;;
76021;SDS011;64718;52.124;6.226;2023-04-01T01:35:34;8.43;;;4.03;;
76021;SDS011;64718;52.124;6.226;2023-04-01T01:38:05;9.50;;;4.47;;
76021;SDS011;64718;52.124;6.226;2023-04-01T01:40:36;12.02;;;5.00;;
76021;SDS011;64718;52.124;6.226;2023-04-01T01:43:05;7.93;;;4.60;;
76021;SDS011;64718;52.124;6.226;2023-04-01T01:45:37;11.38;;;5.07;;
76021;SDS011;64718;52.124;6.226;2023-04-01T01:48:09;9.23;;;5.00;;
76021;SDS011;64718;52.124;6.226;2023-04-01T01:50:38;10.23;;;4.55;;
76021;SDS011;64718;52.124;6.226;2023-04-01T01:53:08;10.15;;;5.35;;
76021;SDS011;64718;52.124;6.226;2023-04-01T01:55:38;10.57;;;6.07;;
76021;SDS011;64718;52.124;6.226;2023-04-01T01:58:07;12.35;;;5.88;;
76021;SDS011;64718;52.124;6.226;2023-04-01T02:00:38;11.52;;;5.95;;
76021;SDS011;64718;52.124;6.226;2023-04-01T02:03:07;12.82;;;5.50;;
76021;SDS011;64718;52.124;6.226;2023-04-01T02:05:35;13.02;;;6.20;;
76021;SDS011;64718;52.124;6.226;2023-04-01T02:08:05;11.80;;;5.85;;
76021;SDS011;64718;52.124;6.226;2023-04-01T02:10:35;15.40;;;6.55;;
76021;SDS011;64718;52.124;6.226;2023-04-01T02:13:07;17.02;;;7.82;;
76021;SDS011;64718;52.124;6.226;2023-04-01T02:15:41;17.00;;;7.00;;
76021;SDS011;64718;52.124;6.226;2023-04-01T02:18:12;15.88;;;7.88;;
76021;SDS011;64718;52.124;6.226;2023-04-01T02:20:40;17.33;;;7.88;;
76021;SDS011;64718;52.124;6.226;2023-04-01T02:23:10;18.90;;;8.63;;
76021;SDS011;64718;52.124;6.226;2023-04-01T02:25:37;16.70;;;8.32;;
76021;SDS011;64718;52.124;6.226;2023-04-01T02:28:06;20.70;;;9.63;;
76021;SDS011;64718;52.124;6.226;2023-04-01T02:30:35;17.40;;;7.90;;
76021;SDS011;64718;52.124;6.226;2023-04-01T02:33:05;17.90;;;8.68;;
76021;SDS011;64718;52.124;6.226;2023-04-01T02:35:32;22.98;;;9.05;;
76021;SDS011;64718;52.124;6.226;2023-04-01T02:38:00;18.67;;;7.93;;
76021;SDS011;64718;52.124;6.226;2023-04-01T02:40:29;15.15;;;6.60;;
76021;SDS011;64718;52.124;6.226;2023-04-01T02:42:55;16.63;;;7.30;;
76021;SDS011;64718;52.124;6.226;2023-04-01T02:45:22;16.20;;;6.90;;
76021;SDS011;64718;52.124;6.226;2023-04-01T02:47:48;18.58;;;6.75;;
76021;SDS011;64718;52.124;6.226;2023-04-01T02:50:15;14.73;;;7.50;;
76021;SDS011;64718;52.124;6.226;2023-04-01T02:52:41;16.02;;;7.05;;
76021;SDS011;64718;52.124;6.226;2023-04-01T02:55:08;16.08;;;6.90;;
76021;SDS011;64718;52.124;6.226;2023-04-01T02:57:36;12.20;;;6.03;;
76021;SDS011;64718;52.124;6.226;2023-04-01T03:00:03;15.38;;;6.32;;
76021;SDS011;64718;52.124;6.226;2023-04-01T03:02:36;15.95;;;6.30;;
76021;SDS011;64718;52.124;6.226;2023-04-01T03:05:03;15.05;;;6.32;;
76021;SDS011;64718;52.124;6.226;2023-04-01T03:07:30;11.27;;;5.97;;
76021;SDS011;64718;52.124;6.226;2023-04-01T03:09:57;14.55;;;5.68;;
76021;SDS011;64718;52.124;6.226;2023-04-01T03:12:23;12.02;;;6.03;;
76021;SDS011;64718;52.124;6.226;2023-04-01T03:14:51;13.23;;;5.93;;
76021;SDS011;64718;52.124;6.226;2023-04-01T03:17:18;16.58;;;6.70;;
76021;SDS011;64718;52.124;6.226;2023-04-01T03:19:44;14.88;;;6.30;;
76021;SDS011;64718;52.124;6.226;2023-04-01T03:22:11;18.17;;;7.15;;
76021;SDS011;64718;52.124;6.226;2023-04-01T03:24:37;15.88;;;5.80;;
76021;SDS011;64718;52.124;6.226;2023-04-01T03:27:04;14.48;;;5.20;;
76021;SDS011;64718;52.124;6.226;2023-04-01T03:29:30;15.20;;;4.97;;
76021;SDS011;64718;52.124;6.226;2023-04-01T03:31:58;9.55;;;4.47;;
76021;SDS011;64718;52.124;6.226;2023-04-01T03:34:25;11.18;;;5.78;;
76021;SDS011;64718;52.124;6.226;2023-04-01T03:36:51;9.70;;;4.05;;
76021;SDS011;64718;52.124;6.226;2023-04-01T03:39:18;9.55;;;4.43;;
76021;SDS011;64718;52.124;6.226;2023-04-01T03:41:45;9.10;;;4.00;;
76021;SDS011;64718;52.124;6.226;2023-04-01T03:44:11;8.25;;;3.95;;
76021;SDS011;64718;52.124;6.226;2023-04-01T03:46:38;5.70;;;3.05;;
76021;SDS011;64718;52.124;6.226;2023-04-01T03:49:07;8.27;;;3.30;;
76021;SDS011;64718;52.124;6.226;2023-04-01T03:51:36;7.80;;;3.55;;
76021;SDS011;64718;52.124;6.226;2023-04-01T03:54:03;6.35;;;2.85;;
76021;SDS011;64718;52.124;6.226;2023-04-01T03:56:29;6.15;;;3.22;;
76021;SDS011;64718;52.124;6.226;2023-04-01T03:58:56;6.57;;;2.45;;
76021;SDS011;64718;52.124;6.226;2023-04-01T04:01:22;6.35;;;3.28;;
76021;SDS011;64718;52.124;6.226;2023-04-01T04:03:50;8.57;;;3.50;;
76021;SDS011;64718;52.124;6.226;2023-04-01T04:06:18;7.75;;;3.25;;
76021;SDS011;64718;52.124;6.226;2023-04-01T04:08:45;8.10;;;3.97;;
76021;SDS011;64718;52.124;6.226;2023-04-01T04:11:12;6.90;;;3.40;;
76021;SDS011;64718;52.124;6.226;2023-04-01T04:13:40;6.88;;;3.35;;
76021;SDS011;64718;52.124;6.226;2023-04-01T04:16:07;6.70;;;2.90;;
76021;SDS011;64718;52.124;6.226;2023-04-01T04:18:34;6.38;;;2.78;;
76021;SDS011;64718;52.124;6.226;2023-04-01T04:21:02;7.70;;;3.58;;
76021;SDS011;64718;52.124;6.226;2023-04-01T04:23:30;5.68;;;3.03;;
76021;SDS011;64718;52.124;6.226;2023-04-01T04:25:59;6.82;;;3.42;;
76021;SDS011;64718;52.124;6.226;2023-04-01T04:28:28;7.75;;;3.78;;
76021;SDS011;64718;52.124;6.226;2023-04-01T04:30:55;9.02;;;3.92;;
76021;SDS011;64718;52.124;6.226;2023-04-01T04:33:22;8.18;;;4.30;;
76021;SDS011;64718;52.124;6.226;2023-04-01T04:35:49;7.38;;;4.00;;
76021;SDS011;64718;52.124;6.226;2023-04-01T04:38:15;9.68;;;4.88;;
76021;SDS011;64718;52.124;6.226;2023-04-01T04:40:43;8.77;;;4.47;;
76021;SDS011;64718;52.124;6.226;2023-04-01T04:43:10;7.28;;;3.08;;
76021;SDS011;64718;52.124;6.226;2023-04-01T04:45:38;10.73;;;4.05;;
76021;SDS011;64718;52.124;6.226;2023-04-01T04:48:06;8.55;;;3.90;;
76021;SDS011;64718;52.124;6.226;2023-04-01T04:50:35;7.55;;;3.90;;
76021;SDS011;64718;52.124;6.226;2023-04-01T04:53:01;9.10;;;4.07;;
76021;SDS011;64718;52.124;6.226;2023-04-01T04:55:28;9.70;;;3.85;;
76021;SDS011;64718;52.124;6.226;2023-04-01T04:57:56;7.90;;;3.97;;
76021;SDS011;64718;52.124;6.226;2023-04-01T05:00:22;6.38;;;3.63;;
76021;SDS011;64718;52.124;6.226;2023-04-01T05:02:49;11.77;;;3.80;;
76021;SDS011;64718;52.124;6.226;2023-04-01T05:05:15;8.73;;;4.03;;
76021;SDS011;64718;52.124;6.226;2023-04-01T05:07:42;7.78;;;4.28;;
76021;SDS011;64718;52.124;6.226;2023-04-01T05:10:08;8.13;;;4.30;;
76021;SDS011;64718;52.124;6.226;2023-04-01T05:12:35;7.13;;;4.90;;
76021;SDS011;64718;52.124;6.226;2023-04-01T05:15:05;7.18;;;4.18;;
76021;SDS011;64718;52.124;6.226;2023-04-01T05:17:33;7.95;;;3.78;;
76021;SDS011;64718;52.124;6.226;2023-04-01T05:20:00;8.10;;;4.85;;
76021;SDS011;64718;52.124;6.226;2023-04-01T05:22:27;7.35;;;3.65;;
76021;SDS011;64718;52.124;6.226;2023-04-01T05:24:54;8.73;;;3.97;;
76021;SDS011;64718;52.124;6.226;2023-04-01T05:27:20;6.55;;;3.83;;
76021;SDS011;64718;52.124;6.226;2023-04-01T05:29:47;7.15;;;4.55;;
76021;SDS011;64718;52.124;6.226;2023-04-01T05:32:15;6.57;;;3.90;;
76021;SDS011;64718;52.124;6.226;2023-04-01T05:34:42;7.88;;;4.10;;
76021;SDS011;64718;52.124;6.226;2023-04-01T05:37:08;10.13;;;4.72;;
76021;SDS011;64718;52.124;6.226;2023-04-01T05:39:35;10.15;;;4.78;;
76021;SDS011;64718;52.124;6.226;2023-04-01T05:42:03;9.43;;;4.03;;
76021;SDS011;64718;52.124;6.226;2023-04-01T05:44:32;9.57;;;4.45;;
76021;SDS011;64718;52.124;6.226;2023-04-01T05:46:58;6.50;;;3.92;;
76021;SDS011;64718;52.124;6.226;2023-04-01T05:49:26;9.15;;;4.18;;
76021;SDS011;64718;52.124;6.226;2023-04-01T05:51:53;8.13;;;4.35;;
76021;SDS011;64718;52.124;6.226;2023-04-01T05:54:19;9.00;;;4.55;;
76021;SDS011;64718;52.124;6.226;2023-04-01T05:56:46;8.90;;;4.95;;
76021;SDS011;64718;52.124;6.226;2023-04-01T05:59:13;9.45;;;4.47;;
76021;SDS011;64718;52.124;6.226;2023-04-01T06:01:39;10.70;;;5.05;;
76021;SDS011;64718;52.124;6.226;2023-04-01T06:04:06;10.48;;;5.10;;
76021;SDS011;64718;52.124;6.226;2023-04-01T06:06:34;10.55;;;5.28;;
76021;SDS011;64718;52.124;6.226;2023-04-01T06:09:05;7.53;;;4.22;;
76021;SDS011;64718;52.124;6.226;2023-04-01T06:11:40;9.55;;;4.60;;
76021;SDS011;64718;52.124;6.226;2023-04-01T06:14:20;7.47;;;4.15;;
76021;SDS011;64718;52.124;6.226;2023-04-01T06:16:59;9.35;;;4.63;;
76021;SDS011;64718;52.124;6.226;2023-04-01T06:19:36;10.10;;;4.32;;
76021;SDS011;64718;52.124;6.226;2023-04-01T06:22:19;10.52;;;5.35;;
76021;SDS011;64718;52.124;6.226;2023-04-01T06:25:18;7.53;;;3.75;;
76021;SDS011;64718;52.124;6.226;2023-04-01T06:27:57;8.05;;;4.38;;
76021;SDS011;64718;52.124;6.226;2023-04-01T06:30:38;9.60;;;4.80;;
76021;SDS011;64718;52.124;6.226;2023-04-01T06:33:12;9.35;;;4.53;;
76021;SDS011;64718;52.124;6.226;2023-04-01T06:36:06;8.38;;;4.05;;
76021;SDS011;64718;52.124;6.226;2023-04-01T06:39:00;7.75;;;4.32;;
76021;SDS011;64718;52.124;6.226;2023-04-01T06:41:48;8.73;;;3.83;;
76021;SDS011;64718;52.124;6.226;2023-04-01T06:44:28;6.07;;;3.47;;
76021;SDS011;64718;52.124;6.226;2023-04-01T06:47:10;7.65;;;4.78;;
76021;SDS011;64718;52.124;6.226;2023-04-01T06:52:23;8.13;;;4.70;;
76021;SDS011;64718;52.124;6.226;2023-04-01T06:54:55;8.80;;;5.05;;
76021;SDS011;64718;52.124;6.226;2023-04-01T06:57:29;10.40;;;5.47;;
76021;SDS011;64718;52.124;6.226;2023-04-01T07:00:00;9.00;;;4.90;;
76021;SDS011;64718;52.124;6.226;2023-04-01T07:02:32;11.52;;;5.25;;
76021;SDS011;64718;52.124;6.226;2023-04-01T07:05:05;9.43;;;4.95;;
76021;SDS011;64718;52.124;6.226;2023-04-01T07:07:34;14.77;;;6.03;;
76021;SDS011;64718;52.124;6.226;2023-04-01T07:10:09;13.50;;;6.32;;
76021;SDS011;64718;52.124;6.226;2023-04-01T07:12:41;11.93;;;5.82;;
76021;SDS011;64718;52.124;6.226;2023-04-01T07:15:14;9.43;;;5.65;;
76021;SDS011;64718;52.124;6.226;2023-04-01T07:17:45;12.27;;;6.28;;
76021;SDS011;64718;52.124;6.226;2023-04-01T07:20:16;11.50;;;5.90;;
76021;SDS011;64718;52.124;6.226;2023-04-01T07:22:49;11.70;;;6.28;;
76021;SDS011;64718;52.124;6.226;2023-04-01T07:25:20;15.48;;;6.10;;
76021;SDS011;64718;52.124;6.226;2023-04-01T07:27:50;13.90;;;6.15;;
76021;SDS011;64718;52.124;6.226;2023-04-01T07:30:20;11.90;;;5.53;;
76021;SDS011;64718;52.124;6.226;2023-04-01T07:32:48;11.05;;;5.97;;
76021;SDS011;64718;52.124;6.226;2023-04-01T07:35:22;11.70;;;7.53;;
76021;SDS011;64718;52.124;6.226;2023-04-01T07:37:58;12.90;;;5.93;;
76021;SDS011;64718;52.124;6.226;2023-04-01T07:40:39;11.93;;;6.22;;
76021;SDS011;64718;52.124;6.226;2023-04-01T07:43:18;12.63;;;6.70;;
76021;SDS011;64718;52.124;6.226;2023-04-01T07:45:57;15.13;;;7.63;;
76021;SDS011;64718;52.124;6.226;2023-04-01T07:48:33;15.25;;;7.13;;
76021;SDS011;64718;52.124;6.226;2023-04-01T07:51:09;15.18;;;6.47;;
76021;SDS011;64718;52.124;6.226;2023-04-01T07:53:44;16.90;;;7.10;;
76021;SDS011;64718;52.124;6.226;2023-04-01T07:56:17;13.63;;;6.50;;
76021;SDS011;64718;52.124;6.226;2023-04-01T07:58:52;14.85;;;7.05;;
76021;SDS011;64718;52.124;6.226;2023-04-01T08:01:27;14.73;;;6.85;;
76021;SDS011;64718;52.124;6.226;2023-04-01T08:04:09;14.88;;;7.20;;
76021;SDS011;64718;52.124;6.226;2023-04-01T08:06:50;13.05;;;6.55;;
76021;SDS011;64718;52.124;6.226;2023-04-01T08:09:26;15.00;;;7.22;;
76021;SDS011;64718;52.124;6.226;2023-04-01T08:12:04;17.10;;;7.38;;
76021;SDS011;64718;52.124;6.226;2023-04-01T08:14:43;14.55;;;7.63;;
76021;SDS011;64718;52.124;6.226;2023-04-01T08:17:19;23.75;;;7.72;;
76021;SDS011;64718;52.124;6.226;2023-04-01T08:19:56;16.25;;;7.50;;
76021;SDS011;64718;52.124;6.226;2023-04-01T08:22:35;14.27;;;7.22;;
76021;SDS011;64718;52.124;6.226;2023-04-01T08:25:06;14.48;;;7.20;;
76021;SDS011;64718;52.124;6.226;2023-04-01T08:27:41;15.40;;;6.28;;
76021;SDS011;64718;52.124;6.226;2023-04-01T08:30:15;16.00;;;6.85;;
76021;SDS011;64718;52.124;6.226;2023-04-01T08:32:44;15.55;;;6.80;;
76021;SDS011;64718;52.124;6.226;2023-04-01T08:35:17;13.13;;;5.47;;
76021;SDS011;64718;52.124;6.226;2023-04-01T08:37:47;13.43;;;5.95;;
76021;SDS011;64718;52.124;6.226;2023-04-01T08:40:22;12.10;;;6.30;;
76021;SDS011;64718;52.124;6.226;2023-04-01T08:43:18;14.48;;;5.97;;
76021;SDS011;64718;52.124;6.226;2023-04-01T08:46:02;14.80;;;6.78;;
76021;SDS011;64718;52.124;6.226;2023-04-01T08:48:51;12.63;;;6.40;;
76021;SDS011;64718;52.124;6.226;2023-04-01T08:51:38;12.52;;;7.10;;
76021;SDS011;64718;52.124;6.226;2023-04-01T08:54:22;11.38;;;5.78;;
76021;SDS011;64718;52.124;6.226;2023-04-01T08:57:04;12.20;;;6.88;;
76021;SDS011;64718;52.124;6.226;2023-04-01T09:02:38;12.45;;;6.35;;
76021;SDS011;64718;52.124;6.226;2023-04-01T09:05:22;12.65;;;6.07;;
76021;SDS011;64718;52.124;6.226;2023-04-01T09:08:02;9.48;;;5.70;;
76021;SDS011;64718;52.124;6.226;2023-04-01T09:10:41;8.77;;;5.13;;
76021;SDS011;64718;52.124;6.226;2023-04-01T09:13:31;9.32;;;5.47;;
76021;SDS011;64718;52.124;6.226;2023-04-01T09:16:12;7.88;;;5.40;;
76021;SDS011;64718;52.124;6.226;2023-04-01T09:18:57;9.45;;;4.88;;
76021;SDS011;64718;52.124;6.226;2023-04-01T09:21:33;9.00;;;5.43;;
76021;SDS011;64718;52.124;6.226;2023-04-01T09:24:34;7.70;;;4.53;;
76021;SDS011;64718;52.124;6.226;2023-04-01T09:27:10;6.35;;;2.90;;
76021;SDS011;64718;52.124;6.226;2023-04-01T09:29:56;6.38;;;3.72;;
76021;SDS011;64718;52.124;6.226;2023-04-01T09:32:56;7.75;;;4.57;;
76021;SDS011;64718;52.124;6.226;2023-04-01T09:35:38;6.60;;;4.03;;
76021;SDS011;64718;52.124;6.226;2023-04-01T09:38:17;7.22;;;4.00;;
76021;SDS011;64718;52.124;6.226;2023-04-01T09:40:49;5.95;;;3.90;;
76021;SDS011;64718;52.124;6.226;2023-04-01T09:43:22;8.13;;;3.47;;
76021;SDS011;64718;52.124;6.226;2023-04-01T09:45:56;7.45;;;4.10;;
76021;SDS011;64718;52.124;6.226;2023-04-01T09:48:39;7.38;;;4.20;;
76021;SDS011;64718;52.124;6.226;2023-04-01T09:51:21;7.13;;;4.40;;
76021;SDS011;64718;52.124;6.226;2023-04-01T09:53:59;7.45;;;3.92;;
76021;SDS011;64718;52.124;6.226;2023-04-01T10:17:41;6.97;;;3.42;;
76021;SDS011;64718;52.124;6.226;2023-04-01T10:20:36;4.93;;;3.25;;
76021;SDS011;64718;52.124;6.226;2023-04-01T10:29:50;5.18;;;3.03;;
76021;SDS011;64718;52.124;6.226;2023-04-01T10:32:49;5.75;;;2.65;;
76021;SDS011;64718;52.124;6.226;2023-04-01T10:35:49;6.07;;;3.78;;
76021;SDS011;64718;52.124;6.226;2023-04-01T10:38:45;6.03;;;3.05;;
76021;SDS011;64718;52.124;6.226;2023-04-01T10:41:44;6.15;;;3.53;;
76021;SDS011;64718;52.124;6.226;2023-04-01T10:47:48;5.20;;;3.45;;
76021;SDS011;64718;52.124;6.226;2023-04-01T10:50:44;4.88;;;2.92;;
76021;SDS011;64718;52.124;6.226;2023-04-01T10:53:34;5.95;;;4.10;;
76021;SDS011;64718;52.124;6.226;2023-04-01T11:08:21;4.57;;;3.10;;
76021;SDS011;64718;52.124;6.226;2023-04-01T11:11:15;4.63;;;3.28;;
76021;SDS011;64718;52.124;6.226;2023-04-01T11:16:47;4.28;;;2.90;;
76021;SDS011;64718;52.124;6.226;2023-04-01T11:25:41;3.33;;;2.05;;
76021;SDS011;64718;52.124;6.226;2023-04-01T11:28:24;2.25;;;1.42;;
76021;SDS011;64718;52.124;6.226;2023-04-01T11:31:19;3.85;;;3.40;;
76021;SDS011;64718;52.124;6.226;2023-04-01T11:33:55;3.42;;;2.10;;
76021;SDS011;64718;52.124;6.226;2023-04-01T11:36:33;3.17;;;2.42;;
76021;SDS011;64718;52.124;6.226;2023-04-01T11:39:19;2.63;;;1.83;;
76021;SDS011;64718;52.124;6.226;2023-04-01T11:41:52;1.88;;;1.52;;
76021;SDS011;64718;52.124;6.226;2023-04-01T11:44:27;2.90;;;2.28;;
76021;SDS011;64718;52.124;6.226;2023-04-01T11:47:02;3.22;;;1.77;;
76021;SDS011;64718;52.124;6.226;2023-04-01T11:49:44;3.53;;;2.47;;
76021;SDS011;64718;52.124;6.226;2023-04-01T11:52:25;3.97;;;2.92;;
76021;SDS011;64718;52.124;6.226;2023-04-01T11:55:06;3.05;;;2.53;;
76021;SDS011;64718;52.124;6.226;2023-04-01T11:57:56;4.35;;;2.97;;
76021;SDS011;64718;52.124;6.226;2023-04-01T12:00:39;3.53;;;2.58;;
76021;SDS011;64718;52.124;6.226;2023-04-01T12:03:26;3.42;;;2.75;;
76021;SDS011;64718;52.124;6.226;2023-04-01T12:06:11;2.55;;;2.35;;
76021;SDS011;64718;52.124;6.226;2023-04-01T12:08:46;3.90;;;1.52;;
76021;SDS011;64718;52.124;6.226;2023-04-01T12:11:23;3.38;;;1.85;;
76021;SDS011;64718;52.124;6.226;2023-04-01T12:13:56;2.97;;;2.30;;
76021;SDS011;64718;52.124;6.226;2023-04-01T12:16:34;4.18;;;1.92;;
76021;SDS011;64718;52.124;6.226;2023-04-01T12:19:11;3.95;;;2.80;;
76021;SDS011;64718;52.124;6.226;2023-04-01T12:21:48;2.67;;;1.45;;
76021;SDS011;64718;52.124;6.226;2023-04-01T12:24:32;2.35;;;2.03;;
76021;SDS011;64718;52.124;6.226;2023-04-01T12:27:19;3.53;;;1.77;;
76021;SDS011;64718;52.124;6.226;2023-04-01T12:29:57;2.60;;;1.73;;
76021;SDS011;64718;52.124;6.226;2023-04-01T12:32:34;3.33;;;2.30;;
76021;SDS011;64718;52.124;6.226;2023-04-01T12:35:18;2.50;;;1.55;;
76021;SDS011;64718;52.124;6.226;2023-04-01T12:37:50;2.55;;;1.85;;
76021;SDS011;64718;52.124;6.226;2023-04-01T12:40:31;2.33;;;1.45;;
76021;SDS011;64718;52.124;6.226;2023-04-01T12:43:23;2.60;;;2.33;;
76021;SDS011;64718;52.124;6.226;2023-04-01T12:46:19;3.75;;;2.80;;
76021;SDS011;64718;52.124;6.226;2023-04-01T12:49:03;3.88;;;3.15;;
76021;SDS011;64718;52.124;6.226;2023-04-01T12:58:03;4.75;;;2.20;;
76021;SDS011;64718;52.124;6.226;2023-04-01T13:00:51;2.97;;;2.33;;
76021;SDS011;64718;52.124;6.226;2023-04-01T13:03:34;3.42;;;1.83;;
76021;SDS011;64718;52.124;6.226;2023-04-01T13:06:24;3.40;;;1.65;;
76021;SDS011;64718;52.124;6.226;2023-04-01T13:09:02;3.53;;;2.25;;
76021;SDS011;64718;52.124;6.226;2023-04-01T13:11:46;3.42;;;1.95;;
76021;SDS011;64718;52.124;6.226;2023-04-01T13:17:17;2.72;;;1.95;;
76021;SDS011;64718;52.124;6.226;2023-04-01T13:19:49;3.08;;;2.03;;
76021;SDS011;64718;52.124;6.226;2023-04-01T13:22:23;2.90;;;1.85;;
76021;SDS011;64718;52.124;6.226;2023-04-01T13:24:58;3.72;;;3.15;;
76021;SDS011;64718;52.124;6.226;2023-04-01T13:27:33;3.03;;;2.67;;
76021;SDS011;64718;52.124;6.226;2023-04-01T13:30:10;2.80;;;1.67;;
76021;SDS011;64718;52.124;6.226;2023-04-01T13:32:48;2.38;;;2.10;;
76021;SDS011;64718;52.124;6.226;2023-04-01T13:35:27;2.42;;;1.92;;
76021;SDS011;64718;52.124;6.226;2023-04-01T13:38:08;2.60;;;2.03;;
76021;SDS011;64718;52.124;6.226;2023-04-01T13:40:47;2.28;;;1.80;;
76021;SDS011;64718;52.124;6.226;2023-04-01T13:43:23;3.55;;;2.35;;
76021;SDS011;64718;52.124;6.226;2023-04-01T13:46:06;2.75;;;2.03;;
76021;SDS011;64718;52.124;6.226;2023-04-01T13:48:56;2.67;;;2.28;;
76021;SDS011;64718;52.124;6.226;2023-04-01T13:51:43;2.65;;;2.08;;
76021;SDS011;64718;52.124;6.226;2023-04-01T13:54:25;2.28;;;1.73;;
76021;SDS011;64718;52.124;6.226;2023-04-01T13:57:16;2.33;;;2.13;;
76021;SDS011;64718;52.124;6.226;2023-04-01T13:59:59;2.83;;;2.35;;
76021;SDS011;64718;52.124;6.226;2023-04-01T14:05:32;2.40;;;1.80;;
76021;SDS011;64718;52.124;6.226;2023-04-01T14:08:14;3.17;;;2.05;;
76021;SDS011;64718;52.124;6.226;2023-04-01T14:10:52;2.60;;;2.05;;
76021;SDS011;64718;52.124;6.226;2023-04-01T14:13:33;3.00;;;2.05;;
76021;SDS011;64718;52.124;6.226;2023-04-01T14:16:13;3.03;;;1.58;;
76021;SDS011;64718;52.124;6.226;2023-04-01T14:19:08;2.85;;;2.20;;
76021;SDS011;64718;52.124;6.226;2023-04-01T14:21:46;4.25;;;2.78;;
76021;SDS011;64718;52.124;6.226;2023-04-01T14:24:23;2.80;;;2.25;;
76021;SDS011;64718;52.124;6.226;2023-04-01T14:29:58;2.55;;;2.15;;
76021;SDS011;64718;52.124;6.226;2023-04-01T14:32:34;2.40;;;1.77;;
76021;SDS011;64718;52.124;6.226;2023-04-01T14:35:24;2.03;;;1.17;;
76021;SDS011;64718;52.124;6.226;2023-04-01T14:38:14;2.92;;;1.95;;
76021;SDS011;64718;52.124;6.226;2023-04-01T14:41:00;2.92;;;2.55;;
76021;SDS011;64718;52.124;6.226;2023-04-01T14:49:35;4.28;;;2.50;;
76021;SDS011;64718;52.124;6.226;2023-04-01T14:52:05;3.45;;;2.58;;
76021;SDS011;64718;52.124;6.226;2023-04-01T14:54:37;4.00;;;3.13;;
76021;SDS011;64718;52.124;6.226;2023-04-01T14:57:10;5.15;;;3.15;;
76021;SDS011;64718;52.124;6.226;2023-04-01T14:59:39;4.63;;;3.35;;
76021;SDS011;64718;52.124;6.226;2023-04-01T15:02:11;4.93;;;2.88;;
76021;SDS011;64718;52.124;6.226;2023-04-01T15:04:54;4.93;;;2.55;;
76021;SDS011;64718;52.124;6.226;2023-04-01T15:07:43;6.40;;;4.75;;
76021;SDS011;64718;52.124;6.226;2023-04-01T15:10:30;5.03;;;3.90;;
76021;SDS011;64718;52.124;6.226;2023-04-01T15:13:10;6.43;;;4.70;;
76021;SDS011;64718;52.124;6.226;2023-04-01T15:15:45;6.57;;;4.20;;
76021;SDS011;64718;52.124;6.226;2023-04-01T15:18:30;5.72;;;3.78;;
76021;SDS011;64718;52.124;6.226;2023-04-01T15:21:11;4.72;;;3.67;;
76021;SDS011;64718;52.124;6.226;2023-04-01T15:23:46;3.38;;;2.72;;
76021;SDS011;64718;52.124;6.226;2023-04-01T15:26:24;4.38;;;3.35;;
76021;SDS011;64718;52.124;6.226;2023-04-01T15:31:57;4.47;;;3.65;;
76021;SDS011;64718;52.124;6.226;2023-04-01T15:34:32;3.30;;;3.00;;
76021;SDS011;64718;52.124;6.226;2023-04-01T15:37:04;4.60;;;3.20;;
76021;SDS011;64718;52.124;6.226;2023-04-01T15:39:45;3.47;;;3.10;;
76021;SDS011;64718;52.124;6.226;2023-04-01T15:42:30;4.97;;;3.08;;
76021;SDS011;64718;52.124;6.226;2023-04-01T15:45:24;3.92;;;3.40;;
76021;SDS011;64718;52.124;6.226;2023-04-01T15:48:01;5.00;;;4.10;;
76021;SDS011;64718;52.124;6.226;2023-04-01T15:50:44;4.95;;;3.97;;
76021;SDS011;64718;52.124;6.226;2023-04-01T15:56:11;5.22;;;3.88;;
76021;SDS011;64718;52.124;6.226;2023-04-01T15:58:48;4.20;;;2.97;;
76021;SDS011;64718;52.124;6.226;2023-04-01T16:01:26;6.72;;;3.60;;
76021;SDS011;64718;52.124;6.226;2023-04-01T16:04:00;6.15;;;3.83;;
76021;SDS011;64718;52.124;6.226;2023-04-01T16:06:51;4.78;;;3.80;;
76021;SDS011;64718;52.124;6.226;2023-04-01T16:09:30;5.40;;;3.47;;
76021;SDS011;64718;52.124;6.226;2023-04-01T16:12:07;4.25;;;3.72;;
76021;SDS011;64718;52.124;6.226;2023-04-01T16:17:21;5.80;;;4.03;;
76021;SDS011;64718;52.124;6.226;2023-04-01T16:19:56;5.05;;;3.53;;
76021;SDS011;64718;52.124;6.226;2023-04-01T16:22:31;4.32;;;3.10;;
76021;SDS011;64718;52.124;6.226;2023-04-01T16:25:05;4.57;;;3.03;;
76021;SDS011;64718;52.124;6.226;2023-04-01T16:27:44;3.47;;;2.53;;
76021;SDS011;64718;52.124;6.226;2023-04-01T16:30:23;3.88;;;1.85;;
76021;SDS011;64718;52.124;6.226;2023-04-01T16:32:59;4.30;;;2.90;;
76021;SDS011;64718;52.124;6.226;2023-04-01T16:35:30;4.05;;;2.70;;
76021;SDS011;64718;52.124;6.226;2023-04-01T16:38:11;3.95;;;2.65;;
76021;SDS011;64718;52.124;6.226;2023-04-01T16:40:47;5.18;;;3.25;;
76021;SDS011;64718;52.124;6.226;2023-04-01T16:43:25;6.15;;;3.72;;
76021;SDS011;64718;52.124;6.226;2023-04-01T16:46:05;5.32;;;3.78;;
76021;SDS011;64718;52.124;6.226;2023-04-01T16:48:49;5.82;;;3.10;;
76021;SDS011;64718;52.124;6.226;2023-04-01T16:51:23;4.20;;;3.05;;
76021;SDS011;64718;52.124;6.226;2023-04-01T16:53:52;6.30;;;4.45;;
76021;SDS011;64718;52.124;6.226;2023-04-01T16:56:36;5.35;;;3.35;;
76021;SDS011;64718;52.124;6.226;2023-04-01T16:59:07;7.75;;;5.00;;
76021;SDS011;64718;52.124;6.226;2023-04-01T17:01:43;7.50;;;4.50;;
76021;SDS011;64718;52.124;6.226;2023-04-01T17:04:18;9.23;;;4.60;;